createdAt,value
2023-02-06T00:01:41.821Z,4.10
2023-02-06T00:04:09.663Z,4.10
2023-02-06T00:06:37.684Z,4.10
2023-02-06T00:09:06.536Z,4.10
2023-02-06T00:11:34.884Z,4.10
2023-02-06T00:14:03.913Z,4.10
2023-02-06T00:16:33.616Z,4.10
2023-02-06T00:19:02.670Z,4.20
2023-02-06T00:21:33.135Z,4.20
2023-02-06T00:24:02.439Z,4.20
2023-02-06T00:26:31.683Z,4.20
2023-02-06T00:28:59.583Z,4.20
2023-02-06T00:31:28.104Z,4.20
2023-02-06T00:33:55.938Z,4.20
2023-02-06T00:36:23.909Z,4.20
2023-02-06T00:38:52.664Z,4.20
2023-02-06T00:41:21.308Z,4.10
2023-02-06T00:43:48.975Z,4.10
2023-02-06T00:46:17.469Z,4.10
2023-02-06T00:48:45.229Z,4.10
2023-02-06T00:51:13.283Z,4.10
2023-02-06T00:53:41.032Z,4.10
2023-02-06T00:56:09.018Z,4.10
2023-02-06T00:58:36.691Z,4.10
2023-02-06T01:01:04.827Z,4.10
2023-02-06T01:03:32.706Z,4.00
2023-02-06T01:06:00.776Z,4.10
2023-02-06T01:08:28.570Z,4.00
2023-02-06T01:10:56.636Z,4.10
2023-02-06T01:13:24.399Z,4.00
2023-02-06T01:15:52.500Z,4.00
2023-02-06T01:18:20.488Z,4.00
2023-02-06T01:20:48.770Z,4.00
2023-02-06T01:23:16.676Z,4.10
2023-02-06T01:25:46.924Z,4.10
2023-02-06T01:28:17.147Z,4.10
2023-02-06T01:30:45.335Z,4.10
2023-02-06T01:33:13.046Z,4.10
2023-02-06T01:35:41.111Z,4.10
2023-02-06T01:38:08.846Z,4.10
2023-02-06T01:40:37.004Z,4.10
2023-02-06T01:43:08.324Z,4.10
2023-02-06T01:45:41.680Z,4.10
2023-02-06T01:48:14.924Z,4.10
2023-02-06T01:50:46.833Z,4.10
2023-02-06T01:53:16.114Z,4.20
2023-02-06T01:55:47.884Z,4.20
2023-02-06T01:58:21.133Z,4.10
2023-02-06T02:00:49.461Z,4.20
2023-02-06T02:03:17.553Z,4.20
2023-02-06T02:05:47.681Z,4.20
2023-02-06T02:08:21.875Z,4.20
2023-02-06T02:10:51.037Z,4.20
2023-02-06T02:13:18.836Z,4.20
2023-02-06T02:15:53.472Z,4.20
2023-02-06T02:18:33.865Z,4.20
2023-02-06T02:21:28.393Z,4.20
2023-02-06T02:24:14.279Z,4.20
2023-02-06T02:27:10.407Z,4.20
2023-02-06T02:30:16.790Z,4.20
2023-02-06T02:32:50.739Z,4.20
2023-02-06T02:35:18.500Z,4.20
2023-02-06T02:38:16.403Z,4.30
2023-02-06T02:41:08.996Z,4.30
2023-02-06T02:43:44.592Z,4.30
2023-02-06T02:46:22.540Z,4.30
2023-02-06T02:48:53.912Z,4.20
2023-02-06T02:51:23.482Z,4.20
2023-02-06T02:53:51.535Z,4.20
2023-02-06T02:56:21.986Z,4.20
2023-02-06T02:58:56.942Z,4.20
2023-02-06T03:01:35.249Z,4.20
2023-02-06T03:04:12.934Z,4.20
2023-02-06T03:07:11.660Z,4.20
2023-02-06T03:10:01.536Z,4.20
2023-02-06T03:12:44.615Z,4.20
2023-02-06T03:15:32.835Z,4.20
2023-02-06T03:18:42.406Z,4.20
2023-02-06T03:21:15.272Z,4.10
2023-02-06T03:23:45.369Z,4.20
2023-02-06T03:26:20.907Z,4.10
2023-02-06T03:28:53.132Z,4.10
2023-02-06T03:31:30.795Z,4.10
2023-02-06T03:34:14.415Z,4.10
2023-02-06T03:36:42.583Z,4.10
2023-02-06T03:39:10.596Z,4.10
2023-02-06T03:41:40.834Z,4.10
2023-02-06T03:44:13.601Z,4.10
2023-02-06T03:46:43.718Z,4.10
2023-02-06T03:49:14.719Z,4.10
2023-02-06T03:52:07.710Z,4.10
2023-02-06T03:54:39.423Z,4.10
2023-02-06T03:57:11.061Z,4.20
2023-02-06T03:59:41.173Z,4.10
2023-02-06T04:02:11.506Z,4.00
2023-02-06T04:04:41.329Z,4.10
2023-02-06T04:07:30.579Z,4.10
2023-02-06T04:09:58.472Z,4.10
2023-02-06T04:12:26.814Z,4.10
2023-02-06T04:14:54.732Z,4.10
2023-02-06T04:17:40.780Z,4.10
2023-02-06T04:20:11.088Z,4.10
2023-02-06T04:22:39.808Z,4.20
2023-02-06T04:25:08.094Z,4.20
2023-02-06T04:27:37.929Z,4.20
2023-02-06T04:30:06.394Z,4.20
2023-02-06T04:32:34.518Z,4.20
2023-02-06T04:35:02.388Z,4.20
2023-02-06T04:37:30.492Z,4.20
2023-02-06T04:39:58.258Z,4.20
2023-02-06T04:42:26.295Z,4.20
2023-02-06T04:44:54.110Z,4.20
2023-02-06T04:47:22.220Z,4.20
2023-02-06T04:49:49.995Z,4.20
2023-02-06T04:52:18.092Z,4.20
2023-02-06T04:54:45.859Z,4.20
2023-02-06T04:57:13.972Z,4.20
2023-02-06T04:59:41.677Z,4.20
2023-02-06T05:02:09.684Z,4.20
2023-02-06T05:04:39.002Z,4.20
2023-02-06T05:07:07.154Z,4.10
2023-02-06T05:09:36.932Z,4.20
2023-02-06T05:12:05.140Z,4.10
2023-02-06T05:14:32.815Z,4.10
2023-02-06T05:17:00.787Z,4.20
2023-02-06T05:19:28.718Z,4.20
2023-02-06T05:21:56.798Z,4.10
2023-02-06T05:24:24.704Z,4.10
2023-02-06T05:26:52.742Z,4.10
2023-02-06T05:29:20.560Z,4.10
2023-02-06T05:31:48.712Z,4.10
2023-02-06T05:34:16.475Z,4.10
2023-02-06T05:36:44.614Z,4.10
2023-02-06T05:39:12.406Z,4.10
2023-02-06T05:41:40.485Z,4.00
2023-02-06T05:44:11.021Z,4.00
2023-02-06T05:46:39.078Z,4.00
2023-02-06T05:49:07.067Z,4.10
2023-02-06T05:51:35.630Z,4.00
2023-02-06T05:54:03.571Z,4.00
2023-02-06T05:56:31.607Z,4.00
2023-02-06T05:58:59.588Z,3.90
2023-02-06T06:01:29.227Z,3.90
2023-02-06T06:03:57.157Z,4.00
2023-02-06T06:06:25.308Z,4.00
2023-02-06T06:08:53.315Z,4.00
2023-02-06T06:11:21.803Z,4.00
2023-02-06T06:13:49.513Z,4.10
2023-02-06T06:16:17.567Z,4.10
2023-02-06T06:18:45.314Z,4.10
2023-02-06T06:21:13.416Z,4.10
2023-02-06T06:23:41.188Z,4.10
2023-02-06T06:26:09.382Z,4.10
2023-02-06T06:28:38.658Z,4.10
2023-02-06T06:31:11.942Z,4.10
2023-02-06T06:33:40.486Z,4.00
2023-02-06T06:36:10.622Z,4.00
2023-02-06T06:38:39.675Z,4.00
2023-02-06T06:41:07.819Z,4.00
2023-02-06T06:43:35.826Z,4.00
2023-02-06T06:46:05.356Z,3.90
2023-02-06T06:48:33.226Z,3.90
2023-02-06T06:51:01.260Z,3.90
2023-02-06T06:53:29.018Z,3.90
2023-02-06T06:56:04.064Z,3.80
2023-02-06T06:58:32.219Z,3.80
2023-02-06T07:01:00.687Z,3.80
2023-02-06T07:03:31.161Z,3.80
2023-02-06T07:05:59.281Z,3.80
2023-02-06T07:08:30.118Z,3.80
2023-02-06T07:10:58.515Z,3.70
2023-02-06T07:13:26.389Z,3.70
2023-02-06T07:15:54.361Z,3.70
2023-02-06T07:18:22.297Z,3.60
2023-02-06T07:20:51.507Z,3.60
2023-02-06T07:23:19.353Z,3.50
2023-02-06T07:25:47.432Z,3.40
2023-02-06T07:28:15.806Z,3.40
2023-02-06T07:30:43.906Z,3.40
2023-02-06T07:33:11.698Z,3.40
2023-02-06T07:35:41.713Z,3.40
2023-02-06T07:38:09.592Z,3.40
2023-02-06T07:40:44.939Z,3.40
2023-02-06T07:43:14.019Z,3.40
2023-02-06T07:45:42.381Z,3.40
2023-02-06T07:48:10.418Z,3.40
2023-02-06T07:50:38.587Z,3.40
2023-02-06T07:53:07.908Z,3.40
2023-02-06T07:55:38.375Z,3.30
2023-02-06T07:58:12.025Z,3.30
2023-02-06T08:00:41.306Z,3.30
2023-02-06T08:03:09.862Z,3.30
2023-02-06T08:05:39.613Z,3.30
2023-02-06T08:08:07.815Z,3.30
2023-02-06T08:10:37.878Z,3.30
2023-02-06T08:13:06.066Z,3.30
2023-02-06T08:15:34.343Z,3.30
2023-02-06T08:18:02.348Z,3.30
2023-02-06T08:20:30.358Z,3.30
2023-02-06T08:22:58.204Z,3.30
2023-02-06T08:25:26.636Z,3.30
2023-02-06T08:27:55.182Z,3.20
2023-02-06T08:30:23.492Z,3.20
2023-02-06T08:32:51.215Z,3.20
2023-02-06T08:35:19.287Z,3.30
2023-02-06T08:37:47.366Z,3.30
2023-02-06T08:40:15.684Z,3.30
2023-02-06T08:42:43.376Z,3.30
2023-02-06T08:45:11.329Z,3.30
2023-02-06T08:47:39.061Z,3.30
2023-02-06T08:50:07.287Z,3.30
2023-02-06T08:52:35.643Z,3.30
2023-02-06T08:55:06.445Z,3.40
2023-02-06T08:57:34.204Z,3.40
2023-02-06T09:00:02.525Z,3.40
2023-02-06T09:02:30.364Z,3.40
2023-02-06T09:04:58.683Z,3.50
2023-02-06T09:07:27.277Z,3.50
2023-02-06T09:09:55.257Z,3.60
2023-02-06T09:12:23.177Z,3.60
2023-02-06T09:14:51.193Z,3.70
2023-02-06T09:17:19.127Z,3.80
2023-02-06T09:19:47.203Z,3.90
2023-02-06T09:22:15.051Z,4.10
2023-02-06T09:24:43.262Z,4.30
2023-02-06T09:27:10.988Z,4.50
2023-02-06T09:29:39.077Z,4.70
2023-02-06T09:32:07.053Z,4.90
2023-02-06T09:34:35.290Z,5.10
2023-02-06T09:37:04.755Z,5.30
2023-02-06T09:39:33.331Z,5.40
2023-02-06T09:42:10.848Z,5.60
2023-02-06T09:44:49.289Z,5.70
2023-02-06T09:47:28.001Z,5.90
2023-02-06T09:49:59.724Z,6.10
2023-02-06T09:52:39.960Z,6.20
2023-02-06T09:55:37.847Z,6.30
2023-02-06T09:58:19.248Z,6.40
2023-02-06T10:01:12.409Z,6.50
2023-02-06T10:03:43.002Z,6.70
2023-02-06T10:06:36.040Z,6.70
2023-02-06T10:09:11.532Z,6.80
2023-02-06T10:11:56.454Z,6.90
2023-02-06T10:14:36.171Z,7.00
2023-02-06T10:17:18.143Z,7.00
2023-02-06T10:19:59.331Z,7.10
2023-02-06T10:22:40.376Z,7.10
2023-02-06T10:25:30.111Z,7.20
2023-02-06T10:28:19.809Z,7.30
2023-02-06T10:30:59.846Z,7.30
2023-02-06T10:34:09.606Z,7.40
2023-02-06T10:36:56.577Z,7.50
2023-02-06T10:39:41.955Z,7.60
2023-02-06T10:42:17.353Z,7.60
2023-02-06T10:45:19.613Z,7.70
2023-02-06T10:47:57.235Z,7.80
2023-02-06T10:50:50.849Z,7.90
2023-02-06T10:53:21.636Z,8.00
2023-02-06T10:55:57.836Z,7.90
2023-02-06T10:58:39.986Z,8.20
2023-02-06T11:01:25.124Z,8.30
2023-02-06T11:04:03.660Z,8.30
2023-02-06T11:06:32.876Z,8.40
2023-02-06T11:09:01.066Z,8.50
2023-02-06T11:11:32.016Z,8.60
2023-02-06T11:14:21.191Z,8.70
2023-02-06T11:16:49.271Z,8.80
2023-02-06T11:19:27.360Z,8.90
2023-02-06T11:22:07.319Z,8.90
2023-02-06T11:24:36.492Z,9.00
2023-02-06T11:27:17.569Z,9.10
2023-02-06T11:29:51.639Z,9.20
2023-02-06T11:33:03.651Z,9.30
2023-02-06T11:35:38.177Z,9.50
2023-02-06T11:38:20.324Z,9.50
2023-02-06T11:41:03.070Z,9.60
2023-02-06T11:43:49.165Z,9.60
2023-02-06T11:46:25.325Z,9.70
2023-02-06T11:48:56.736Z,9.80
2023-02-06T11:51:25.453Z,9.80
2023-02-06T11:54:04.679Z,9.90
2023-02-06T11:56:32.468Z,10.00
2023-02-06T11:59:17.835Z,10.10
2023-02-06T12:01:50.103Z,10.20
2023-02-06T12:04:26.061Z,10.20
2023-02-06T12:07:01.584Z,10.30
2023-02-06T12:09:29.878Z,10.30
2023-02-06T12:12:16.459Z,10.30
2023-02-06T12:14:48.455Z,10.40
2023-02-06T12:17:39.921Z,10.40
2023-02-06T12:20:21.108Z,10.50
2023-02-06T12:22:56.333Z,10.60
2023-02-06T12:25:32.989Z,10.70
2023-02-06T12:28:15.628Z,10.70
2023-02-06T12:30:52.506Z,10.80
2023-02-06T12:33:25.468Z,10.80
2023-02-06T12:36:03.275Z,10.70
2023-02-06T12:38:55.985Z,10.70
2023-02-06T12:41:47.489Z,10.80
2023-02-06T12:44:33.561Z,10.80
2023-02-06T12:47:04.370Z,10.80
2023-02-06T12:49:39.946Z,10.90
2023-02-06T12:52:35.113Z,11.00
2023-02-06T12:55:17.459Z,11.00
2023-02-06T12:57:47.284Z,11.10
2023-02-06T13:00:27.200Z,11.20
2023-02-06T13:03:30.304Z,11.30
2023-02-06T13:06:20.052Z,11.40
2023-02-06T13:09:01.043Z,11.40
2023-02-06T13:11:35.879Z,11.40
2023-02-06T13:14:25.483Z,11.50
2023-02-06T13:16:53.360Z,11.50
2023-02-06T13:19:36.622Z,11.40
2023-02-06T13:22:10.636Z,11.50
2023-02-06T13:24:46.945Z,11.50
2023-02-06T13:27:36.741Z,11.50
2023-02-06T13:30:33.854Z,11.50
2023-02-06T13:33:20.976Z,11.50
2023-02-06T13:36:01.857Z,11.60
2023-02-06T13:38:35.959Z,11.60
2023-02-06T13:41:14.116Z,11.60
2023-02-06T13:43:49.162Z,11.60
2023-02-06T13:46:51.960Z,11.70
2023-02-06T13:49:54.932Z,11.70
2023-02-06T13:52:54.497Z,11.60
2023-02-06T13:55:50.568Z,11.60
2023-02-06T13:58:37.491Z,11.60
2023-02-06T14:01:17.340Z,11.60
2023-02-06T14:06:32.395Z,11.60
2023-02-06T14:09:30.593Z,11.60
2023-02-06T14:12:34.260Z,11.70
2023-02-06T14:15:14.537Z,11.70
2023-02-06T14:17:55.515Z,11.70
2023-02-06T14:20:41.425Z,11.60
2023-02-06T14:23:27.982Z,11.60
2023-02-06T14:26:02.481Z,11.60
2023-02-06T14:28:52.882Z,11.70
2023-02-06T14:31:41.625Z,11.60
2023-02-06T14:34:48.511Z,11.60
2023-02-06T14:37:28.932Z,11.60
2023-02-06T14:40:04.527Z,11.60
2023-02-06T14:42:38.500Z,11.60
2023-02-06T14:45:25.350Z,11.60
2023-02-06T14:47:56.487Z,11.60
2023-02-06T14:50:31.844Z,11.60
2023-02-06T14:53:19.691Z,11.60
2023-02-06T14:55:48.269Z,11.50
2023-02-06T14:58:28.382Z,11.60
2023-02-06T15:01:10.690Z,11.50
2023-02-06T15:03:40.136Z,11.50
2023-02-06T15:06:11.644Z,11.50
2023-02-06T15:08:47.525Z,11.50
2023-02-06T15:11:32.378Z,11.50
2023-02-06T15:14:04.346Z,11.50
2023-02-06T15:16:45.812Z,11.40
2023-02-06T15:19:22.449Z,11.40
2023-02-06T15:21:54.931Z,11.40
2023-02-06T15:24:51.031Z,11.40
2023-02-06T15:27:34.634Z,11.40
2023-02-06T15:30:13.245Z,11.30
2023-02-06T15:32:41.058Z,11.30
2023-02-06T15:35:26.978Z,11.20
2023-02-06T15:37:56.658Z,11.20
2023-02-06T15:40:32.255Z,11.10
2023-02-06T15:43:02.166Z,11.10
2023-02-06T15:45:35.858Z,11.10
2023-02-06T15:48:26.035Z,11.00
2023-02-06T15:51:02.585Z,11.00
2023-02-06T15:53:32.422Z,11.00
2023-02-06T15:56:02.277Z,10.90
2023-02-06T15:58:32.061Z,10.90
2023-02-06T16:01:05.867Z,10.90
2023-02-06T16:03:34.432Z,10.90
2023-02-06T16:06:02.469Z,10.80
2023-02-06T16:08:35.620Z,10.80
2023-02-06T16:11:27.767Z,10.70
2023-02-06T16:13:57.485Z,10.70
2023-02-06T16:16:27.081Z,10.70
2023-02-06T16:18:56.308Z,10.60
2023-02-06T16:21:28.567Z,10.60
2023-02-06T16:24:06.836Z,10.50
2023-02-06T16:27:08.702Z,10.50
2023-02-06T16:29:36.785Z,10.40
2023-02-06T16:32:17.547Z,10.30
2023-02-06T16:34:46.501Z,10.30
2023-02-06T16:37:26.250Z,10.20
2023-02-06T16:39:54.732Z,10.20
2023-02-06T16:42:32.949Z,10.10
2023-02-06T16:45:05.696Z,10.00
2023-02-06T16:47:34.024Z,10.00
2023-02-06T16:50:01.985Z,9.90
2023-02-06T16:52:33.005Z,9.80
2023-02-06T16:55:01.701Z,9.70
2023-02-06T16:57:41.402Z,9.60
2023-02-06T17:00:18.296Z,9.50
2023-02-06T17:02:47.541Z,9.40
2023-02-06T17:05:16.146Z,9.30
2023-02-06T17:07:44.693Z,9.20
2023-02-06T17:10:13.830Z,9.10
2023-02-06T17:12:42.875Z,9.00
2023-02-06T17:15:12.796Z,9.00
2023-02-06T17:17:40.989Z,8.90
2023-02-06T17:20:30.819Z,8.80
2023-02-06T17:22:59.084Z,8.70
2023-02-06T17:25:27.345Z,8.60
2023-02-06T17:27:55.495Z,8.50
2023-02-06T17:30:26.188Z,8.50
2023-02-06T17:32:54.601Z,8.40
2023-02-06T17:35:22.480Z,8.30
2023-02-06T17:37:53.086Z,8.20
2023-02-06T17:40:24.502Z,8.10
2023-02-06T17:42:52.902Z,8.00
2023-02-06T17:45:21.036Z,8.00
2023-02-06T17:47:49.512Z,8.00
2023-02-06T17:50:25.118Z,7.90
2023-02-06T17:52:55.694Z,7.90
2023-02-06T17:55:25.153Z,7.80
2023-02-06T17:57:54.239Z,7.80
2023-02-06T18:00:25.453Z,7.80
2023-02-06T18:02:55.349Z,7.70
2023-02-06T18:05:24.376Z,7.70
2023-02-06T18:07:52.915Z,7.70
2023-02-06T18:10:25.535Z,7.60
2023-02-06T18:12:53.956Z,7.60
2023-02-06T18:15:21.707Z,7.60
2023-02-06T18:17:49.775Z,7.60
2023-02-06T18:20:17.827Z,7.60
2023-02-06T18:22:46.608Z,7.60
2023-02-06T18:25:17.668Z,7.50
2023-02-06T18:27:46.080Z,7.50
2023-02-06T18:30:15.456Z,7.50
2023-02-06T18:32:43.832Z,7.50
2023-02-06T18:35:11.693Z,7.50
2023-02-06T18:37:39.846Z,7.50
2023-02-06T18:40:07.942Z,7.50
2023-02-06T18:42:51.088Z,7.40
2023-02-06T18:45:24.261Z,7.40
2023-02-06T18:47:52.635Z,7.30
2023-02-06T18:50:23.057Z,7.30
2023-02-06T18:52:51.547Z,7.30
2023-02-06T18:55:19.919Z,7.20
2023-02-06T18:57:48.206Z,7.20
2023-02-06T19:00:17.822Z,7.20
2023-02-06T19:02:46.099Z,7.10
2023-02-06T19:05:14.647Z,7.10
2023-02-06T19:07:42.794Z,7.10
2023-02-06T19:10:13.130Z,7.00
2023-02-06T19:12:41.294Z,7.00
2023-02-06T19:15:13.190Z,7.00
2023-02-06T19:17:41.808Z,6.90
2023-02-06T19:20:14.413Z,6.90
2023-02-06T19:22:42.440Z,6.80
2023-02-06T19:25:14.345Z,6.70
2023-02-06T19:27:42.767Z,6.70
2023-02-06T19:30:11.202Z,6.60
2023-02-06T19:32:39.724Z,6.60
2023-02-06T19:35:07.743Z,6.60
2023-02-06T19:37:38.943Z,6.50
2023-02-06T19:40:07.265Z,6.50
2023-02-06T19:42:35.546Z,6.50
2023-02-06T19:45:04.287Z,6.40
2023-02-06T19:47:33.816Z,6.30
2023-02-06T19:50:01.755Z,6.30
2023-02-06T19:52:29.823Z,6.20
2023-02-06T19:54:59.901Z,6.10
2023-02-06T19:57:27.912Z,6.10
2023-02-06T19:59:57.905Z,6.00
2023-02-06T20:02:25.958Z,6.00
2023-02-06T20:04:53.707Z,5.90
2023-02-06T20:07:21.738Z,5.80
2023-02-06T20:09:51.216Z,5.80
2023-02-06T20:12:19.398Z,5.70
2023-02-06T20:14:47.190Z,5.60
2023-02-06T20:17:17.429Z,5.60
2023-02-06T20:19:45.426Z,5.50
2023-02-06T20:22:13.405Z,5.40
2023-02-06T20:24:41.233Z,5.30
2023-02-06T20:27:09.604Z,5.20
2023-02-06T20:29:39.828Z,5.20
2023-02-06T20:32:08.392Z,5.20
2023-02-06T20:34:36.600Z,5.20
2023-02-06T20:37:05.044Z,5.10
2023-02-06T20:39:35.325Z,5.10
2023-02-06T20:42:03.747Z,5.10
2023-02-06T20:44:31.862Z,5.00
2023-02-06T20:47:01.097Z,5.00
2023-02-06T20:49:31.207Z,5.00
2023-02-06T20:52:01.456Z,5.00
2023-02-06T20:54:30.903Z,4.90
2023-02-06T20:57:01.687Z,5.00
2023-02-06T20:59:30.666Z,4.90
2023-02-06T21:01:58.992Z,4.90
2023-02-06T21:04:26.882Z,4.90
2023-02-06T21:06:55.554Z,4.80
2023-02-06T21:09:23.301Z,4.80
2023-02-06T21:11:51.432Z,4.80
2023-02-06T21:14:19.720Z,4.80
2023-02-06T21:16:48.658Z,4.80
2023-02-06T21:19:19.385Z,4.80
2023-02-06T21:21:48.645Z,4.80
2023-02-06T21:24:17.716Z,4.80
2023-02-06T21:26:45.970Z,4.80
2023-02-06T21:29:15.062Z,4.80
2023-02-06T21:31:44.170Z,4.90
2023-02-06T21:34:22.036Z,4.90
2023-02-06T21:36:50.305Z,5.00
2023-02-06T21:39:26.860Z,5.00
2023-02-06T21:41:55.181Z,5.00
2023-02-06T21:44:26.492Z,5.00
2023-02-06T21:46:55.961Z,5.10
2023-02-06T21:49:24.760Z,5.10
2023-02-06T21:51:53.433Z,5.10
2023-02-06T21:54:22.037Z,5.00
2023-02-06T21:56:50.498Z,5.00
2023-02-06T21:59:18.695Z,5.00
2023-02-06T22:01:47.033Z,5.00
2023-02-06T22:04:15.124Z,5.00
2023-02-06T22:06:43.684Z,5.00
2023-02-06T22:09:15.861Z,5.00
2023-02-06T22:11:44.460Z,5.00
2023-02-06T22:14:14.829Z,5.00
2023-02-06T22:16:43.348Z,5.00
2023-02-06T22:19:11.366Z,5.10
2023-02-06T22:21:39.681Z,5.10
2023-02-06T22:24:09.208Z,5.10
2023-02-06T22:26:39.422Z,5.10
2023-02-06T22:29:10.378Z,5.10
2023-02-06T22:31:40.534Z,5.10
2023-02-06T22:34:11.892Z,5.10
2023-02-06T22:36:40.118Z,5.00
2023-02-06T22:39:10.152Z,4.90
2023-02-06T22:41:42.234Z,4.80
2023-02-06T22:44:12.549Z,4.70
2023-02-06T22:46:40.653Z,4.70
2023-02-06T22:49:09.459Z,4.60
2023-02-06T22:51:39.064Z,4.60
2023-02-06T22:54:09.442Z,4.50
2023-02-06T22:56:39.245Z,4.50
2023-02-06T22:59:12.921Z,4.50
2023-02-06T23:01:47.201Z,4.40
2023-02-06T23:04:18.065Z,4.40
2023-02-06T23:06:46.851Z,4.30
2023-02-06T23:09:17.859Z,4.30
2023-02-06T23:11:46.520Z,4.30
2023-02-06T23:14:15.814Z,4.20
2023-02-06T23:16:44.495Z,4.20
2023-02-06T23:19:14.171Z,4.20
2023-02-06T23:21:46.205Z,4.10
2023-02-06T23:24:17.541Z,4.10
2023-02-06T23:26:48.464Z,4.00
2023-02-06T23:29:18.176Z,4.00
2023-02-06T23:31:47.665Z,3.90
2023-02-06T23:34:17.317Z,3.90
2023-02-06T23:36:46.269Z,3.90
2023-02-06T23:39:14.117Z,3.90
2023-02-06T23:41:42.264Z,3.90
2023-02-06T23:44:11.040Z,3.90
2023-02-06T23:46:40.412Z,3.90
2023-02-06T23:49:08.964Z,3.90
2023-02-06T23:51:39.776Z,3.80
2023-02-06T23:54:08.267Z,3.80
2023-02-06T23:56:36.758Z,3.80
2023-02-06T23:59:05.653Z,3.70
